Dobrodošli na spletni strani vremenske postaje Senovo. Vse informacije so informativnega značaja, saj vremenska postaja ni del državne mreže meteoroloških postaj. AKTUALNIH OBVESTIL NI.


Posebna pozornost v zvezi z vremenskimi dogajanji ni potrebna.    Posebna pozornost v zvezi z vremenskimi dogajanji ni potrebna.

Pogled proti Armezu več informacij Pogled proti Armezu


Lisca več informacij Lisca


Radar strel več informacij blitzortung!


Radar padavin več informacij rain snow radar


Obiščite še:

Template documentation
and downloads

And another site



Weather Underground, zgodovina - Tekstovno

Dnevni povzetek za Januar 22, 2018 Enote:  Angleško    Metrično   Obe
« Predhodni Dan
Naslednji Dan »
Dnevni Tedenski Mesečni Letni Po meri
  Višja: Nižja: Povprečje:
Temperatura: TemperatureC °F -3.1 °F 0.3 °F
Točka rosišča: DewpointC °F -4.9 °F -2.8 °F
Vlažnost: Humidity % 56 % 80 %
Hitrost vetra: WindSpeedKMH mph 0.0 mph 1.1 mph
Sunki vetra: WindSpeedGustKMH mph - -
Veter:- - WSW
Zračni tlak: PressurehPa in 1010.0 in -
Padavine: 0.0 in    
Historical Graphs
 
 
Tabelarni podarki za Januar 22, 2018
Čas Temperatura Točka rosišča Zračni tlak Veter Hitrost vetra Sunki vetra Vlažnost Intenziteta padavin (urna)
TemperatureC °F DewpointC °F PressurehPa in Calm     Humidity % HourlyPrecipMM in
00:09 -0.3 °F -2.3 °F 1016.1 in Calm     86 % 0.0 in
00:14 -0.3 °F -2.3 °F 1016.1 in Calm     86 % 0.0 in
00:19 -0.3 °F -2.3 °F 1016.1 in Calm     86 % 0.0 in
00:24 -0.3 °F -2.3 °F 1016.1 in Calm     86 % 0.0 in
00:29 -0.4 °F -2.4 °F 1016.1 in Calm     86 % 0.0 in
00:34 -0.5 °F -2.6 °F 1016.1 in Calm     86 % 0.0 in
00:39 -0.5 °F -2.6 °F 1016.1 in Calm     86 % 0.0 in
00:44 -0.6 °F -2.5 °F 1016.1 in Calm     87 % 0.0 in
00:49 -0.7 °F -2.6 °F 1016.1 in Calm     87 % 0.0 in
00:54 -0.8 °F -2.7 °F 1016.1 in Calm     87 % 0.0 in
00:59 -0.9 °F -2.8 °F 1016.1 in Calm     87 % 0.0 in
01:04 -1.0 °F -2.9 °F 1016.1 in Calm     87 % 0.0 in
01:09 -1.0 °F -2.9 °F 1016.1 in Calm     87 % 0.0 in
01:14 -1.1 °F -3.0 °F 1016.1 in Calm     87 % 0.0 in
01:19 -1.2 °F -3.1 °F 1016.1 in Calm     87 % 0.0 in
01:24 -1.2 °F -3.1 °F 1016.1 in Calm     87 % 0.0 in
01:29 -1.3 °F -3.2 °F 1016.1 in Calm     87 % 0.0 in
01:34 -1.4 °F -3.3 °F 1016.1 in Calm     87 % 0.0 in
01:39 -1.4 °F -3.3 °F 1016.1 in Calm     87 % 0.0 in
01:44 -1.5 °F -3.4 °F 1016.1 in Calm     87 % 0.0 in
01:49 -1.6 °F -3.5 °F 1016.1 in Calm     87 % 0.0 in
01:54 -1.7 °F -3.6 °F 1016.1 in Calm     87 % 0.0 in
01:59 -1.7 °F -3.6 °F 1016.1 in SW 0.3 mph 4.0 mph 87 % 0.0 in
02:04 -1.8 °F -3.7 °F 1016.1 in SW 1.0 mph 4.0 mph 87 % 0.0 in
02:09 -1.8 °F -3.5 °F 1016.1 in WSW 1.1 mph 4.0 mph 88 % 0.0 in
02:14 -1.9 °F -3.6 °F 1016.1 in NW 0.3 mph 2.6 mph 88 % 0.0 in
02:19 -1.9 °F -3.6 °F 1016.1 in Calm     88 % 0.0 in
02:24 -2.0 °F -3.7 °F 1016.1 in Calm     88 % 0.0 in
02:29 -2.1 °F -3.8 °F 1016.1 in Calm     88 % 0.0 in
02:34 -2.1 °F -3.8 °F 1016.1 in SW 0.8 mph 3.5 mph 88 % 0.0 in
02:39 -2.3 °F -4.0 °F 1016.1 in SW 1.1 mph 3.5 mph 88 % 0.0 in
02:44 -2.3 °F -4.0 °F 1016.1 in WSW 1.1 mph 3.2 mph 88 % 0.0 in
02:49 -2.3 °F -4.0 °F 1016.1 in WNW 1.1 mph 3.2 mph 88 % 0.0 in
02:54 -2.4 °F -4.1 °F 1016.1 in NW 0.5 mph 2.6 mph 88 % 0.0 in
02:59 -2.5 °F -4.2 °F 1016.1 in Calm     88 % 0.0 in
03:04 -2.5 °F -4.2 °F 1016.1 in Calm     88 % 0.0 in
03:09 -2.6 °F -4.3 °F 1016.1 in Calm     88 % 0.0 in
03:14 -2.6 °F -4.3 °F 1016.1 in Calm     88 % 0.0 in
03:19 -2.6 °F -4.3 °F 1016.1 in Calm     88 % 0.0 in
03:24 -2.7 °F -4.4 °F 1016.1 in Calm     88 % 0.0 in
03:29 -2.8 °F -4.5 °F 1015.1 in Calm     88 % 0.0 in
03:34 -2.8 °F -4.5 °F 1015.1 in Calm     88 % 0.0 in
03:39 -2.8 °F -4.5 °F 1015.1 in Calm     88 % 0.0 in
03:44 -2.9 °F -4.6 °F 1016.1 in Calm     88 % 0.0 in
03:54 -3.0 °F -4.6 °F 1016.1 in Calm     89 % 0.0 in
03:59 -3.0 °F -4.6 °F 1015.1 in Calm     89 % 0.0 in
04:04 -3.0 °F -4.6 °F 1015.1 in Calm     89 % 0.0 in
04:09 -3.1 °F -4.7 °F 1015.1 in NW 0.8 mph 3.2 mph 89 % 0.0 in
04:14 -3.0 °F -4.6 °F 1015.1 in NW 1.4 mph 3.5 mph 89 % 0.0 in
04:19 -3.0 °F -4.6 °F 1015.1 in NW 1.0 mph 4.0 mph 89 % 0.0 in
04:24 -3.0 °F -4.6 °F 1015.1 in NW 0.8 mph 4.0 mph 89 % 0.0 in
04:29 -3.0 °F -4.6 °F 1015.1 in NW 0.5 mph 3.5 mph 89 % 0.0 in
04:34 -3.0 °F -4.6 °F 1015.1 in Calm     89 % 0.0 in
04:39 -3.0 °F -4.6 °F 1015.1 in Calm     89 % 0.0 in
04:44 -3.0 °F -4.6 °F 1015.1 in Calm   4.0 mph 89 % 0.0 in
04:49 -3.0 °F -4.6 °F 1015.1 in NNW 1.0 mph 4.3 mph 89 % 0.0 in
04:54 -2.9 °F -4.4 °F 1015.1 in North 1.0 mph 4.3 mph 89 % 0.0 in
05:04 -2.6 °F -4.2 °F 1015.1 in South 2.4 mph 4.7 mph 89 % 0.0 in
05:09 -2.5 °F -3.9 °F 1015.1 in SSE 1.3 mph 4.7 mph 90 % 0.0 in
05:14 -2.5 °F -3.9 °F 1016.1 in Calm     90 % 0.0 in
05:19 -2.5 °F -3.9 °F 1016.1 in Calm     90 % 0.0 in
05:24 -2.4 °F -3.8 °F 1016.1 in Calm   1.8 mph 90 % 0.0 in
05:29 -2.5 °F -3.9 °F 1015.1 in Calm   1.8 mph 90 % 0.0 in
05:39 -2.5 °F -3.9 °F 1015.1 in Calm     90 % 0.0 in
05:44 -2.5 °F -3.9 °F 1015.1 in SSW 0.3 mph 2.6 mph 90 % 0.0 in
05:49 -2.5 °F -3.9 °F 1015.1 in SSW 0.3 mph 2.6 mph 90 % 0.0 in
05:54 -2.4 °F -3.8 °F 1015.1 in Calm     90 % 0.0 in
05:59 -2.4 °F -3.8 °F 1015.1 in Calm     90 % 0.0 in
06:04 -2.4 °F -3.8 °F 1015.1 in Calm     90 % 0.0 in
06:09 -2.3 °F -3.7 °F 1015.1 in Calm     90 % 0.0 in
06:14 -2.3 °F -3.7 °F 1015.1 in Calm     90 % 0.0 in
06:19 -2.3 °F -3.7 °F 1015.1 in Calm     90 % 0.0 in
06:29 -2.2 °F -3.4 °F 1015.1 in Calm     91 % 0.0 in
06:34 -2.2 °F -3.4 °F 1015.1 in Calm     91 % 0.0 in
06:39 -2.2 °F -3.4 °F 1015.1 in Calm     91 % 0.0 in
06:44 -2.1 °F -3.4 °F 1015.1 in Calm     91 % 0.0 in
06:49 -2.1 °F -3.4 °F 1015.1 in Calm     91 % 0.0 in
06:54 -2.1 °F -3.4 °F 1015.1 in Calm     91 % 0.0 in
06:59 -2.1 °F -3.4 °F 1015.1 in Calm     91 % 0.0 in
07:04 -2.1 °F -3.4 °F 1015.1 in Calm     91 % 0.0 in
07:09 -2.1 °F -3.4 °F 1015.1 in Calm     91 % 0.0 in
07:14 -2.2 °F -3.4 °F 1015.1 in Calm     91 % 0.0 in
07:19 -2.2 °F -3.4 °F 1015.1 in Calm     91 % 0.0 in
07:34 -2.3 °F -3.6 °F 1015.1 in Calm     91 % 0.0 in
07:44 -2.3 °F -3.6 °F 1015.1 in Calm     91 % 0.0 in
07:49 -2.3 °F -3.6 °F 1015.1 in Calm     91 % 0.0 in
07:54 -2.3 °F -3.6 °F 1015.1 in Calm     91 % 0.0 in
07:59 -2.3 °F -3.6 °F 1015.1 in Calm     91 % 0.0 in
08:04 -2.3 °F -3.6 °F 1015.1 in Calm   4.3 mph 91 % 0.0 in
08:09 -2.3 °F -3.6 °F 1015.1 in South 1.4 mph 4.7 mph 91 % 0.0 in
08:19 -2.1 °F -3.2 °F 1015.1 in South 1.0 mph 3.5 mph 92 % 0.0 in
08:24 -2.1 °F -3.2 °F 1015.1 in WNW 0.3 mph 3.5 mph 92 % 0.0 in
08:29 -2.0 °F -3.1 °F 1015.1 in WNW 0.3 mph 2.6 mph 92 % 0.0 in
08:34 -1.9 °F -3.2 °F 1015.1 in WNW 0.5 mph 2.6 mph 91 % 0.0 in
08:44 -1.8 °F -2.9 °F 1015.1 in South 0.3 mph 3.2 mph 92 % 0.0 in
08:49 -1.7 °F -2.8 °F 1015.1 in South 0.3 mph 3.2 mph 92 % 0.0 in
08:54 -1.6 °F -2.7 °F 1015.1 in Calm     92 % 0.0 in
08:59 -1.5 °F -2.6 °F 1015.1 in Calm     92 % 0.0 in
09:04 -1.5 °F -2.6 °F 1015.1 in Calm     92 % 0.0 in
09:09 -1.3 °F -2.4 °F 1015.1 in Calm     92 % 0.0 in
09:14 -1.1 °F -2.2 °F 1016.1 in Calm     92 % 0.0 in
09:19 -1.0 °F -2.0 °F 1016.1 in Calm     93 % 0.0 in
09:24 -0.8 °F -1.9 °F 1016.1 in Calm     92 % 0.0 in
09:34 -0.4 °F -1.4 °F 1016.1 in SSE 1.8 mph 4.3 mph 93 % 0.0 in
09:39 -0.2 °F -1.2 °F 1016.1 in SSE 1.1 mph 4.3 mph 93 % 0.0 in
09:44 -0.1 °F -1.1 °F 1015.1 in SSE 0.3 mph 2.6 mph 93 % 0.0 in
09:54 0.2 °F -0.8 °F 1015.1 in SSE 0.2 mph 2.1 mph 93 % 0.0 in
09:59 0.3 °F -0.7 °F 1015.1 in Calm     93 % 0.0 in
10:04 0.4 °F -0.4 °F 1015.1 in South 0.3 mph 3.2 mph 94 % 0.0 in
10:14 0.6 °F -0.3 °F 1015.1 in ESE 0.5 mph 4.0 mph 94 % 0.0 in
10:19 0.7 °F -0.2 °F 1015.1 in ESE 0.5 mph 4.0 mph 94 % 0.0 in
10:24 0.9 °F 0.1 °F 1015.1 in SSW 0.8 mph 6.1 mph 94 % 0.0 in
10:29 1.1 °F 0.2 °F 1015.1 in SSW 2.7 mph 6.1 mph 94 % 0.0 in
10:34 1.3 °F 0.4 °F 1015.1 in SSW 3.5 mph 5.5 mph 94 % 0.0 in
10:39 1.4 °F 0.6 °F 1015.1 in SSW 3.9 mph 6.9 mph 94 % 0.0 in
10:44 1.5 °F 0.7 °F 1015.1 in South 4.8 mph 6.9 mph 94 % 0.0 in
10:54 1.8 °F 0.9 °F 1015.1 in South 4.0 mph 5.8 mph 94 % 0.0 in
10:59 1.9 °F 1.1 °F 1015.1 in South 4.2 mph 6.4 mph 94 % 0.0 in
11:04 2.1 °F 1.2 °F 1015.1 in South 4.5 mph 6.9 mph 94 % 0.0 in
11:09 2.2 °F 1.3 °F 1015.1 in SSW 4.7 mph 6.9 mph 94 % 0.0 in
11:14 2.4 °F 1.6 °F 1015.1 in SSW 4.8 mph 6.4 mph 94 % 0.0 in
11:19 2.6 °F 1.7 °F 1015.1 in South 4.7 mph 6.4 mph 94 % 0.0 in
11:24 2.6 °F 1.7 °F 1015.1 in South 4.5 mph 6.1 mph 94 % 0.0 in
11:29 2.8 °F 1.9 °F 1015.1 in SSW 4.3 mph 6.1 mph 94 % 0.0 in
11:34 2.8 °F 1.8 °F 1015.1 in SSW 3.5 mph 5.8 mph 93 % 0.0 in
11:39 3.0 °F 2.0 °F 1015.1 in SW 3.7 mph 9.0 mph 93 % 0.0 in
11:44 3.0 °F 2.0 °F 1015.1 in WSW 4.7 mph 10.1 mph 93 % 0.0 in
11:49 3.1 °F 1.9 °F 1015.1 in WSW 5.5 mph 10.1 mph 92 % 0.0 in
11:54 3.1 °F 1.9 °F 1015.1 in SW 6.6 mph 12.2 mph 92 % 0.0 in
12:04 3.2 °F 1.9 °F 1014.1 in SW 6.6 mph 13.0 mph 91 % 0.0 in
12:14 3.3 °F 1.7 °F 1014.1 in SW 7.9 mph 10.5 mph 89 % 0.0 in
12:24 3.6 °F 1.8 °F 1014.1 in SW 6.0 mph 14.0 mph 88 % 0.0 in
12:29 3.6 °F 1.6 °F 1013.1 in SW 6.9 mph 14.0 mph 87 % 0.0 in
12:34 3.6 °F 1.6 °F 1013.1 in SW 7.6 mph 12.6 mph 87 % 0.0 in
12:39 3.8 °F 1.7 °F 1013.1 in SW 6.0 mph 9.3 mph 86 % 0.0 in
12:54 4.1 °F 1.4 °F 1012.1 in WSW 5.5 mph 14.0 mph 83 % 0.0 in
12:59 4.2 °F 1.4 °F 1012.1 in SW 3.4 mph 6.4 mph 82 % 0.0 in
13:04 4.3 °F 1.3 °F 1012.1 in South 3.2 mph 6.9 mph 81 % 0.0 in
13:09 4.4 °F 1.2 °F 1012.1 in SW 4.8 mph 8.7 mph 80 % 0.0 in
13:14 4.6 °F 1.3 °F 1013.1 in SW 4.8 mph 8.7 mph 79 % 0.0 in
13:24 4.6 °F 0.9 °F 1013.1 in SW 4.5 mph 7.9 mph 77 % 0.0 in
13:29 4.5 °F 0.6 °F 1013.1 in WSW 3.7 mph 7.6 mph 76 % 0.0 in
13:34 4.3 °F 0.3 °F 1013.1 in West 3.7 mph 8.7 mph 75 % 0.0 in
13:39 4.3 °F 0.1 °F 1013.1 in West 5.3 mph 13.7 mph 74 % 0.0 in
13:44 4.1 °F -0.3 °F 1012.1 in WNW 6.0 mph 13.7 mph 73 % 0.0 in
13:49 4.1 °F -0.5 °F 1012.1 in West 5.1 mph 9.3 mph 72 % 0.0 in
13:54 4.1 °F -0.7 °F 1012.1 in West 4.2 mph 6.4 mph 71 % 0.0 in
14:04 4.3 °F -0.9 °F 1012.1 in WNW 4.2 mph 9.7 mph 69 % 0.0 in
14:14 4.5 °F -0.9 °F 1012.1 in ESE 2.4 mph 4.7 mph 68 % 0.0 in
14:29 4.9 °F -1.1 °F 1012.1 in SW 3.7 mph 9.0 mph 65 % 0.0 in
14:35 4.9 °F -1.3 °F 1012.1 in SW 5.1 mph 8.7 mph 64 % 0.0 in
14:40 4.9 °F -1.6 °F 1012.1 in SSW 4.5 mph 6.1 mph 63 % 0.0 in
14:45 4.9 °F -1.6 °F 1012.1 in South 3.9 mph 5.8 mph 63 % 0.0 in
14:50 4.9 °F -1.8 °F 1012.1 in South 3.5 mph 5.8 mph 62 % 0.0 in
14:55 4.8 °F -2.1 °F 1012.1 in SW 4.5 mph 10.1 mph 61 % 0.0 in
15:00 4.8 °F -2.1 °F 1012.1 in SW 5.6 mph 10.1 mph 61 % 0.0 in
15:05 4.8 °F -2.3 °F 1012.1 in SW 4.2 mph 8.7 mph 60 % 0.0 in
15:10 4.8 °F -2.6 °F 1012.1 in West 3.7 mph 8.7 mph 59 % 0.0 in
15:15 4.7 °F -2.7 °F 1012.1 in West 2.3 mph 6.4 mph 59 % 0.0 in
15:20 4.7 °F -2.9 °F 1012.1 in West 0.3 mph 1.8 mph 58 % 0.0 in
15:25 4.6 °F -2.9 °F 1012.1 in SW 0.3 mph 4.3 mph 58 % 0.0 in
15:40 4.3 °F -3.7 °F 1011.1 in SE 0.5 mph 5.5 mph 56 % 0.0 in
15:55 3.8 °F -4.2 °F 1011.1 in SSE 0.3 mph 2.1 mph 56 % 0.0 in
16:00 3.6 °F -4.4 °F 1011.1 in SW 1.3 mph 3.5 mph 56 % 0.0 in
16:05 3.5 °F -4.4 °F 1011.1 in SW 1.4 mph 3.5 mph 56 % 0.0 in
16:10 3.4 °F -4.3 °F 1011.1 in SW 0.2 mph 1.8 mph 57 % 0.0 in
16:15 3.3 °F -4.4 °F 1011.1 in Calm     57 % 0.0 in
16:20 3.1 °F -4.6 °F 1011.1 in Calm     57 % 0.0 in
16:25 3.1 °F -4.6 °F 1011.1 in Calm     57 % 0.0 in
16:30 3.0 °F -4.4 °F 1010.0 in Calm     58 % 0.0 in
16:35 2.9 °F -4.3 °F 1010.0 in Calm     59 % 0.0 in
16:40 2.8 °F -4.4 °F 1010.0 in Calm   3.5 mph 59 % 0.0 in
16:45 2.7 °F -4.5 °F 1010.0 in NW 0.8 mph 3.5 mph 59 % 0.0 in
16:50 2.7 °F -4.3 °F 1010.0 in NW 1.0 mph 3.5 mph 60 % 0.0 in
16:55 2.5 °F -4.5 °F 1010.0 in NW 0.2 mph 1.8 mph 60 % 0.0 in
17:00 2.4 °F -4.6 °F 1010.0 in Calm     60 % 0.0 in
17:05 2.3 °F -4.4 °F 1010.0 in Calm     61 % 0.0 in
17:10 2.1 °F -4.7 °F 1010.0 in Calm     61 % 0.0 in
17:15 2.0 °F -4.5 °F 1010.0 in Calm   2.6 mph 62 % 0.0 in
17:20 1.9 °F -4.6 °F 1010.0 in SW 0.2 mph 2.6 mph 62 % 0.0 in
17:25 1.7 °F -4.6 °F 1010.0 in SSW 0.2 mph 1.8 mph 63 % 0.0 in
17:30 1.6 °F -4.7 °F 1011.1 in Calm     63 % 0.0 in
17:35 1.4 °F -4.9 °F 1011.1 in SW 0.6 mph 3.5 mph 63 % 0.0 in
17:40 1.3 °F -4.8 °F 1011.1 in West 1.1 mph 4.0 mph 64 % 0.0 in
17:45 1.3 °F -4.8 °F 1011.1 in NW 1.0 mph 4.3 mph 64 % 0.0 in
17:50 1.1 °F -4.9 °F 1011.1 in NW 0.3 mph 4.3 mph 64 % 0.0 in
17:55 1.0 °F -4.8 °F 1011.1 in Calm   4.0 mph 65 % 0.0 in
18:00 1.0 °F -4.8 °F 1011.1 in NW 0.8 mph 4.7 mph 65 % 0.0 in
18:05 0.9 °F -4.7 °F 1011.1 in NW 1.9 mph 4.7 mph 66 % 0.0 in
18:10 0.8 °F -4.8 °F 1011.1 in NW 1.3 mph 4.0 mph 66 % 0.0 in
18:15 0.7 °F -4.7 °F 1012.1 in WNW 0.2 mph 1.4 mph 67 % 0.0 in
18:20 0.7 °F -4.7 °F 1012.1 in Calm     67 % 0.0 in
18:25 0.6 °F -4.8 °F 1012.1 in Calm     67 % 0.0 in
18:30 0.6 °F -4.6 °F 1012.1 in Calm   2.6 mph 68 % 0.0 in
18:35 0.6 °F -4.6 °F 1012.1 in WNW 0.2 mph 2.6 mph 68 % 0.0 in
18:40 0.6 °F -4.4 °F 1012.1 in WNW 0.2 mph 2.6 mph 69 % 0.0 in
18:45 0.5 °F -4.6 °F 1012.1 in Calm     69 % 0.0 in
18:50 0.5 °F -4.6 °F 1012.1 in Calm   2.1 mph 69 % 0.0 in
18:55 0.5 °F -4.3 °F 1012.1 in Calm   2.1 mph 70 % 0.0 in
19:00 0.5 °F -4.3 °F 1012.1 in Calm     70 % 0.0 in
19:05 0.5 °F -4.2 °F 1012.1 in WNW 0.5 mph 4.0 mph 71 % 0.0 in
19:10 0.5 °F -4.2 °F 1012.1 in WNW 0.8 mph 4.0 mph 71 % 0.0 in
19:15 0.5 °F -4.2 °F 1012.1 in WNW 0.3 mph 2.1 mph 71 % 0.0 in
19:20 0.4 °F -4.3 °F 1012.1 in WNW 0.3 mph 2.6 mph 71 % 0.0 in
19:25 0.3 °F -4.2 °F 1012.1 in WNW 1.3 mph 4.3 mph 72 % 0.0 in
19:30 0.3 °F -4.2 °F 1012.1 in West 2.3 mph 4.7 mph 72 % 0.0 in
19:35 0.3 °F -4.2 °F 1012.1 in WSW 1.3 mph 4.7 mph 72 % 0.0 in
19:40 0.2 °F -4.3 °F 1012.1 in Calm     72 % 0.0 in
19:45 0.1 °F -4.2 °F 1012.1 in Calm     73 % 0.0 in
19:50 0.1 °F -4.2 °F 1012.1 in NNW 0.5 mph 3.2 mph 73 % 0.0 in
19:55 0.1 °F -4.2 °F 1012.1 in NNW 0.5 mph 3.2 mph 73 % 0.0 in
20:00 0.1 °F -4.2 °F 1012.1 in Calm     73 % 0.0 in
20:05 0.1 °F -4.0 °F 1012.1 in Calm     74 % 0.0 in
20:10 0.1 °F -4.0 °F 1012.1 in NNW 1.0 mph 3.5 mph 74 % 0.0 in
20:15 0.1 °F -4.0 °F 1012.1 in NNW 2.1 mph 3.5 mph 74 % 0.0 in
20:20 0.1 °F -3.8 °F 1012.1 in NNW 1.3 mph 3.5 mph 75 % 0.0 in
20:26 0.1 °F -3.8 °F 1012.1 in Calm     75 % 0.0 in
20:31 0.1 °F -3.8 °F 1012.1 in NNW 0.2 mph 2.1 mph 75 % 0.0 in
20:36 0.1 °F -3.8 °F 1012.1 in NNW 0.3 mph 2.6 mph 75 % 0.0 in
20:41 0.2 °F -3.7 °F 1012.1 in NNW 0.3 mph 2.6 mph 75 % 0.0 in
20:46 0.2 °F -3.6 °F 1012.1 in Calm     76 % 0.0 in
20:51 0.3 °F -3.4 °F 1012.1 in SE 0.2 mph 3.5 mph 76 % 0.0 in
20:56 0.3 °F -3.4 °F 1013.1 in SE 0.3 mph 3.5 mph 76 % 0.0 in
21:01 0.4 °F -3.3 °F 1013.1 in SSW 0.5 mph 2.6 mph 76 % 0.0 in
21:06 0.4 °F -3.2 °F 1013.1 in SSW 0.5 mph 2.6 mph 77 % 0.0 in
21:11 0.4 °F -3.2 °F 1012.1 in NW 0.5 mph 2.6 mph 77 % 0.0 in
21:16 0.4 °F -3.2 °F 1012.1 in NW 0.8 mph 3.5 mph 77 % 0.0 in
21:21 0.4 °F -3.2 °F 1012.1 in NW 1.0 mph 3.5 mph 77 % 0.0 in
21:26 0.4 °F -3.2 °F 1012.1 in NW 0.5 mph 2.6 mph 77 % 0.0 in
21:31 0.4 °F -3.2 °F 1012.1 in Calm     77 % 0.0 in
21:36 0.4 °F -3.2 °F 1012.1 in Calm     77 % 0.0 in
21:41 0.4 °F -3.0 °F 1012.1 in Calm     78 % 0.0 in
21:46 0.4 °F -3.0 °F 1012.1 in Calm     78 % 0.0 in
21:51 0.4 °F -3.0 °F 1012.1 in Calm     78 % 0.0 in
21:56 0.4 °F -3.0 °F 1012.1 in Calm     78 % 0.0 in
22:01 0.4 °F -3.0 °F 1012.1 in WNW 0.2 mph 3.5 mph 78 % 0.0 in
22:06 0.4 °F -3.0 °F 1012.1 in WNW 0.5 mph 3.5 mph 78 % 0.0 in
22:11 0.4 °F -3.0 °F 1012.1 in WNW 0.3 mph 1.8 mph 78 % 0.0 in
22:16 0.4 °F -3.0 °F 1012.1 in Calm     78 % 0.0 in
22:21 0.4 °F -2.8 °F 1012.1 in Calm     79 % 0.0 in
22:26 0.4 °F -2.8 °F 1012.1 in Calm     79 % 0.0 in
22:31 0.4 °F -2.8 °F 1012.1 in Calm     79 % 0.0 in
22:36 0.4 °F -2.8 °F 1012.1 in Calm     79 % 0.0 in
22:41 0.5 °F -2.7 °F 1012.1 in Calm     79 % 0.0 in
22:46 0.5 °F -2.7 °F 1012.1 in WNW 0.2 mph 3.5 mph 79 % 0.0 in
22:51 0.5 °F -2.7 °F 1012.1 in WNW 0.5 mph 3.5 mph 79 % 0.0 in
22:56 0.5 °F -2.7 °F 1013.1 in WSW 0.8 mph 4.0 mph 79 % 0.0 in
23:01 0.5 °F -2.7 °F 1013.1 in SW 1.9 mph 4.0 mph 79 % 0.0 in
23:06 0.5 °F -2.6 °F 1013.1 in SW 1.9 mph 4.0 mph 80 % 0.0 in
23:11 0.5 °F -2.6 °F 1013.1 in NNW 0.3 mph 3.2 mph 80 % 0.0 in
23:16 0.5 °F -2.6 °F 1013.1 in Calm     80 % 0.0 in
23:21 0.5 °F -2.6 °F 1013.1 in Calm     80 % 0.0 in
23:26 0.5 °F -2.6 °F 1013.1 in Calm     80 % 0.0 in
23:31 0.5 °F -2.6 °F 1013.1 in Calm     80 % 0.0 in
23:36 0.5 °F -2.6 °F 1013.1 in Calm     80 % 0.0 in
23:41 0.5 °F -2.6 °F 1013.1 in Calm     80 % 0.0 in
23:46 0.5 °F -2.6 °F 1013.1 in Calm     80 % 0.0 in
23:51 0.5 °F -2.4 °F 1013.1 in Calm     81 % 0.0 in
23:56 0.5 °F -2.4 °F 1013.1 in Calm     81 % 0.0 in
Vremenska postaja Senovo
Podatki zbrani iz Weather Underground - 2.75 mb

Script developed by  Jim McMurry - jmcmurry@mwt.net Adapted for the template by  Wim van der Kuil - Leuven-Template.eu

Vremenski podatki so objavljeni na:

European Weather Network

WeatherCloud

Weather Underground

AWEKAS

HAMweather, WeatherForYou, PWS Weather

MapView

Geostik

Slovenia weather network

Oprema, ki se uporablja:

Vremenski program
Cumulus

Vremenski server
Asus

Cumulus

Asus